SnowmanRWIS Atmospheric Data: 06/24/2019 Summary  Detailed Graphs  Station List

  Temperature     Wind Precipitation Visibility
Timestamp Air Wet
Bulb
Dew-
point
24-hr
Max
24-hr
Min
Relative
Humidity
Atmospheric
Pressure
Avg
Speed
Avg
Dir
Spot
Speed
Spot
Dir
Max
Speed
Max
Dir
  Rate Situation Start End 1 hr 3 hr 6 hr 12 hr 24 hr   Situation
Date Time °F °F °F °F °F % in Hg mph ° mph ° mph ° Y/N in/hr text Date Time Date Time in in in in in mi text
06/24/2019 12:03 AM 58.82 47.48 34.88 76.64 44.60 40.0 Not Reported 4.03 SW 2.01 W 4.92 W No 0.000 No Precipitation 06/07/2019 11:50 AM 06/07/2019 11:55 AM 0.000 0.000 0.000 0.000 0.000 Not Reported Not Reported
06/24/2019 12:08 AM 59.00 47.30 34.52 76.64 44.60 39.0 Not Reported 3.13 SW 3.58 W 4.92 W No 0.000 No Precipitation 06/07/2019 11:50 AM 06/07/2019 11:55 AM 0.000 0.000 0.000 0.000 0.000 Not Reported Not Reported
06/24/2019 12:13 AM 59.18 47.30 34.34 76.64 44.60 39.0 Not Reported 1.34 W 1.79 SW 6.26 W No 0.000 No Precipitation 06/07/2019 11:50 AM 06/07/2019 11:55 AM 0.000 0.000 0.000 0.000 0.000 Not Reported Not Reported
06/24/2019 12:18 AM 59.18 47.48 34.70 76.64 44.60 39.0 Not Reported 3.13 SW 2.68 SW 6.26 W No 0.000 No Precipitation 06/07/2019 11:50 AM 06/07/2019 11:55 AM 0.000 0.000 0.000 0.000 0.000 Not Reported Not Reported
06/24/2019 12:23 AM 58.82 47.30 34.70 76.64 44.60 40.0 Not Reported 3.36 W 1.79 S 6.93 W No 0.000 No Precipitation 06/07/2019 11:50 AM 06/07/2019 11:55 AM 0.000 0.000 0.000 0.000 0.000 Not Reported Not Reported
06/24/2019 12:28 AM 58.64 47.30 34.52 76.64 44.60 40.0 Not Reported 3.58 W 3.36 W 6.93 W No 0.000 No Precipitation 06/07/2019 11:50 AM 06/07/2019 11:55 AM 0.000 0.000 0.000 0.000 0.000 Not Reported Not Reported
06/24/2019 12:33 AM 58.46 47.12 34.70 76.64 44.60 40.0 Not Reported 1.79 S 0.00 NW 5.37 SW No 0.000 No Precipitation 06/07/2019 11:50 AM 06/07/2019 11:55 AM 0.000 0.000 0.000 0.000 0.000 Not Reported Not Reported
06/24/2019 12:38 AM 57.74 46.76 34.34 76.64 44.60 41.0 Not Reported 3.36 W 0.89 W 5.37 SW No 0.000 No Precipitation 06/07/2019 11:50 AM 06/07/2019 11:55 AM 0.000 0.000 0.000 0.000 0.000 Not Reported Not Reported
06/24/2019 12:43 AM 57.74 46.76 34.52 76.64 44.60 41.0 Not Reported 1.34 W 1.79 SW 4.70 SW No 0.000 No Precipitation 06/07/2019 11:50 AM 06/07/2019 11:55 AM 0.000 0.000 0.000 0.000 0.000 Not Reported Not Reported
06/24/2019 12:48 AM 57.20 46.58 34.88 76.64 44.60 42.0 Not Reported 2.01 SW 2.01 S 4.70 SW No 0.000 No Precipitation 06/07/2019 11:50 AM 06/07/2019 11:55 AM 0.000 0.000 0.000 0.000 0.000 Not Reported Not Reported
06/24/2019 12:53 AM 56.66 46.58 35.60 76.64 44.60 44.0 Not Reported 2.24 W 2.46 W 4.25 W No 0.000 No Precipitation 06/07/2019 11:50 AM 06/07/2019 11:55 AM 0.000 0.000 0.000 0.000 0.000 Not Reported Not Reported
06/24/2019 12:58 AM 55.94 46.40 35.78 76.64 44.60 46.0 Not Reported 2.46 W 2.24 W 4.25 W No 0.000 No Precipitation 06/07/2019 11:50 AM 06/07/2019 11:55 AM 0.000 0.000 0.000 0.000 0.000 Not Reported Not Reported
06/24/2019 01:03 AM 55.40 45.68 34.34 76.64 44.60 44.0 Not Reported 1.79 SW 0.89 SW 2.91 W No 0.000 No Precipitation 06/07/2019 11:50 AM 06/07/2019 11:55 AM 0.000 0.000 0.000 0.000 0.000 Not Reported Not Reported
06/24/2019 01:08 AM 55.58 46.22 36.14 76.64 44.60 48.0 Not Reported 1.57 SW 1.34 W 2.91 W No 0.000 No Precipitation 06/07/2019 11:50 AM 06/07/2019 11:55 AM 0.000 0.000 0.000 0.000 0.000 Not Reported Not Reported
06/24/2019 01:13 AM 54.86 46.04 36.32 76.64 44.60 49.0 Not Reported 1.79 W 1.12 W 4.03 SW No 0.000 No Precipitation 06/07/2019 11:50 AM 06/07/2019 11:55 AM 0.000 0.000 0.000 0.000 0.000 Not Reported Not Reported
06/24/2019 01:18 AM 53.96 45.50 36.32 76.64 44.60 51.0 Not Reported 2.24 W 2.91 W 4.03 SW No 0.000 No Precipitation 06/07/2019 11:50 AM 06/07/2019 11:55 AM 0.000 0.000 0.000 0.000 0.000 Not Reported Not Reported
06/24/2019 01:23 AM 53.42 45.32 36.32 76.64 44.60 52.0 Not Reported 0.22 W 1.34 W 2.91 W No 0.000 No Precipitation 06/07/2019 11:50 AM 06/07/2019 11:55 AM 0.000 0.000 0.000 0.000 0.000 Not Reported Not Reported
06/24/2019 01:28 AM 53.24 45.14 35.96 76.64 44.60 51.0 Not Reported 2.01 W 1.34 W 2.91 W No 0.000 No Precipitation 06/07/2019 11:50 AM 06/07/2019 11:55 AM 0.000 0.000 0.000 0.000 0.000 Not Reported Not Reported
06/24/2019 01:33 AM 52.88 44.96 36.14 76.64 44.60 52.0 Not Reported 2.46 W 1.79 W 2.91 W No 0.000 No Precipitation 06/07/2019 11:50 AM 06/07/2019 11:55 AM 0.000 0.000 0.000 0.000 0.000 Not Reported Not Reported
06/24/2019 01:38 AM 52.34 44.60 36.14 76.64 44.60 54.0 Not Reported 0.89 W 3.58 W 2.91 W No 0.000 No Precipitation 06/07/2019 11:50 AM 06/07/2019 11:55 AM 0.000 0.000 0.000 0.000 0.000 Not Reported Not Reported
06/24/2019 01:43 AM 51.80 44.42 36.14 76.64 44.60 54.0 Not Reported 0.67 W 1.57 W 3.58 W No 0.000 No Precipitation 06/07/2019 11:50 AM 06/07/2019 11:55 AM 0.000 0.000 0.000 0.000 0.000 Not Reported Not Reported
06/24/2019 01:48 AM 51.26 44.42 36.32 76.64 44.60 56.0 Not Reported 2.01 W 2.24 W 3.58 W No 0.000 No Precipitation 06/07/2019 11:50 AM 06/07/2019 11:55 AM 0.000 0.000 0.000 0.000 0.000 Not Reported Not Reported
06/24/2019 01:53 AM 51.08 44.06 36.32 76.64 44.60 56.0 Not Reported 1.12 W 3.36 W 3.58 W No 0.000 No Precipitation 06/07/2019 11:50 AM 06/07/2019 11:55 AM 0.000 0.000 0.000 0.000 0.000 Not Reported Not Reported
06/24/2019 01:58 AM 50.72 43.88 36.32 76.64 44.60 57.0 Not Reported 1.34 W 1.34 W 3.58 W No 0.000 No Precipitation 06/07/2019 11:50 AM 06/07/2019 11:55 AM 0.000 0.000 0.000 0.000 0.000 Not Reported Not Reported
06/24/2019 02:03 AM 50.36 43.88 36.32 76.64 44.60 58.0 Not Reported 1.79 W 0.89 W 3.36 W No 0.000 No Precipitation 06/07/2019 11:50 AM 06/07/2019 11:55 AM 0.000 0.000 0.000 0.000 0.000 Not Reported Not Reported
06/24/2019 02:08 AM 50.00 43.70 36.32 76.64 44.60 59.0 Not Reported 2.68 W 2.01 W 3.36 W No 0.000 No Precipitation 06/07/2019 11:50 AM 06/07/2019 11:55 AM 0.000 0.000 0.000 0.000 0.000 Not Reported Not Reported
06/24/2019 02:13 AM 49.82 43.52 36.32 76.64 44.60 59.0 Not Reported 1.12 W 1.12 W 3.13 W No 0.000 No Precipitation 06/07/2019 11:50 AM 06/07/2019 11:55 AM 0.000 0.000 0.000 0.000 0.000 Not Reported Not Reported
06/24/2019 02:18 AM 49.46 43.34 36.50 76.64 44.60 60.0 Not Reported 0.89 W 0.22 W 3.13 W No 0.000 No Precipitation 06/07/2019 11:50 AM 06/07/2019 11:55 AM 0.000 0.000 0.000 0.000 0.000 Not Reported Not Reported
06/24/2019 02:23 AM 49.28 43.34 36.50 76.64 44.60 61.0 Not Reported 1.12 W 0.22 SW 2.46 NW No 0.000 No Precipitation 06/07/2019 11:50 AM 06/07/2019 11:55 AM 0.000 0.000 0.000 0.000 0.000 Not Reported Not Reported
06/24/2019 02:28 AM 49.10 43.16 36.50 76.64 44.60 61.0 Not Reported 2.24 W 1.57 W 2.46 NW No 0.000 No Precipitation 06/07/2019 11:50 AM 06/07/2019 11:55 AM 0.000 0.000 0.000 0.000 0.000 Not Reported Not Reported
06/24/2019 02:33 AM 48.74 42.98 36.50 76.64 44.60 62.0 Not Reported 1.34 NW 0.00 W 3.58 W No 0.000 No Precipitation 06/07/2019 11:50 AM 06/07/2019 11:55 AM 0.000 0.000 0.000 0.000 0.000 Not Reported Not Reported
06/24/2019 02:38 AM 48.56 42.98 36.50 76.64 44.60 63.0 Not Reported 0.22 W 0.00 W 3.58 W No 0.000 No Precipitation 06/07/2019 11:50 AM 06/07/2019 11:55 AM 0.000 0.000 0.000 0.000 0.000 Not Reported Not Reported
06/24/2019 02:43 AM 48.20 42.80 36.50 76.64 44.60 63.0 Not Reported 0.89 W 0.00 W 3.13 W No 0.000 No Precipitation 06/07/2019 11:50 AM 06/07/2019 11:55 AM 0.000 0.000 0.000 0.000 0.000 Not Reported Not Reported
06/24/2019 02:48 AM 47.66 42.62 36.50 76.64 44.60 64.0 Not Reported 0.00 W 0.00 SW 3.13 W No 0.000 No Precipitation 06/07/2019 11:50 AM 06/07/2019 11:55 AM 0.000 0.000 0.000 0.000 0.000 Not Reported Not Reported
06/24/2019 02:53 AM 47.48 42.44 36.50 76.64 44.60 65.0 Not Reported 0.45 SW 0.67 W 1.79 W No 0.000 No Precipitation 06/07/2019 11:50 AM 06/07/2019 11:55 AM 0.000 0.000 0.000 0.000 0.000 Not Reported Not Reported
06/24/2019 02:58 AM 47.66 42.44 36.68 76.64 44.60 65.0 Not Reported 0.00 NW 0.45 NW 1.79 W No 0.000 No Precipitation 06/07/2019 11:50 AM 06/07/2019 11:55 AM 0.000 0.000 0.000 0.000 0.000 Not Reported Not Reported
06/24/2019 03:03 AM 47.12 42.26 36.50 76.64 44.60 66.0 Not Reported 0.67 NW 0.89 W 1.57 SE No 0.000 No Precipitation 06/07/2019 11:50 AM 06/07/2019 11:55 AM 0.000 0.000 0.000 0.000 0.000 Not Reported Not Reported
06/24/2019 03:08 AM 47.12 42.26 36.68 76.64 44.60 66.0 Not Reported 0.45 W 0.00 W 1.57 SE No 0.000 No Precipitation 06/07/2019 11:50 AM 06/07/2019 11:55 AM 0.000 0.000 0.000 0.000 0.000 Not Reported Not Reported
06/24/2019 03:13 AM 47.12 42.26 36.50 76.64 44.60 66.0 Not Reported 0.00 NW 0.00 NW 0.89 W No 0.000 No Precipitation 06/07/2019 11:50 AM 06/07/2019 11:55 AM 0.000 0.000 0.000 0.000 0.000 Not Reported Not Reported
06/24/2019 03:18 AM 47.12 42.26 36.50 76.64 44.60 66.0 Not Reported 0.00 N 0.00 W 0.89 W No 0.000 No Precipitation 06/07/2019 11:50 AM 06/07/2019 11:55 AM 0.000 0.000 0.000 0.000 0.000 Not Reported Not Reported
06/24/2019 03:23 AM 47.30 42.44 36.68 76.64 44.60 66.0 Not Reported 0.67 N 0.00 N 1.79 N No 0.000 No Precipitation 06/07/2019 11:50 AM 06/07/2019 11:55 AM 0.000 0.000 0.000 0.000 0.000 Not Reported Not Reported
06/24/2019 03:28 AM 47.12 42.44 36.86 76.64 44.60 67.0 Not Reported 1.34 W 1.34 W 1.79 N No 0.000 No Precipitation 06/07/2019 11:50 AM 06/07/2019 11:55 AM 0.000 0.000 0.000 0.000 0.000 Not Reported Not Reported
06/24/2019 03:33 AM 47.12 42.44 36.86 76.64 44.60 67.0 Not Reported 0.45 W 0.89 W 1.34 W No 0.000 No Precipitation 06/07/2019 11:50 AM 06/07/2019 11:55 AM 0.000 0.000 0.000 0.000 0.000 Not Reported Not Reported
06/24/2019 03:38 AM 47.12 42.44 36.86 76.64 44.60 67.0 Not Reported 0.67 W 0.89 W 1.34 W No 0.000 No Precipitation 06/07/2019 11:50 AM 06/07/2019 11:55 AM 0.000 0.000 0.000 0.000 0.000 Not Reported Not Reported
06/24/2019 03:43 AM 46.94 42.26 37.04 76.64 44.60 68.0 Not Reported 2.24 W 1.34 SW 2.01 W No 0.000 No Precipitation 06/07/2019 11:50 AM 06/07/2019 11:55 AM 0.000 0.000 0.000 0.000 0.000 Not Reported Not Reported
06/24/2019 03:48 AM 46.94 42.44 37.04 76.64 44.60 68.0 Not Reported 0.45 S 0.45 S 2.01 W No 0.000 No Precipitation 06/07/2019 11:50 AM 06/07/2019 11:55 AM 0.000 0.000 0.000 0.000 0.000 Not Reported Not Reported
06/24/2019 03:53 AM 46.58 42.08 36.86 76.64 44.60 68.0 Not Reported 2.46 NW 1.57 W 2.46 W No 0.000 No Precipitation 06/07/2019 11:50 AM 06/07/2019 11:55 AM 0.000 0.000 0.000 0.000 0.000 Not Reported Not Reported
06/24/2019 03:58 AM 47.12 42.44 37.04 76.64 44.60 68.0 Not Reported 1.79 W 1.57 W 2.46 W No 0.000 No Precipitation 06/07/2019 11:50 AM 06/07/2019 11:55 AM 0.000 0.000 0.000 0.000 0.000 Not Reported Not Reported
06/24/2019 04:03 AM 46.58 42.08 36.86 76.64 44.60 68.0 Not Reported 2.24 W 1.57 W 2.91 NW No 0.000 No Precipitation 06/07/2019 11:50 AM 06/07/2019 11:55 AM 0.000 0.000 0.000 0.000 0.000 Not Reported Not Reported
06/24/2019 04:08 AM 46.76 42.26 37.04 76.64 44.60 68.0 Not Reported 0.89 W 0.67 W 2.91 NW No 0.000 No Precipitation 06/07/2019 11:50 AM 06/07/2019 11:55 AM 0.000 0.000 0.000 0.000 0.000 Not Reported Not Reported
06/24/2019 04:13 AM 46.40 41.90 36.86 76.64 44.60 69.0 Not Reported 2.01 W 2.01 W 2.46 W No 0.000 No Precipitation 06/07/2019 11:50 AM 06/07/2019 11:55 AM 0.000 0.000 0.000 0.000 0.000 Not Reported Not Reported
06/24/2019 04:18 AM 46.22 41.90 36.86 76.64 44.60 69.0 Not Reported 0.67 W 0.67 NW 2.46 W No 0.000 No Precipitation 06/07/2019 11:50 AM 06/07/2019 11:55 AM 0.000 0.000 0.000 0.000 0.000 Not Reported Not Reported
06/24/2019 04:23 AM 45.86 41.72 36.68 76.64 44.60 70.0 Not Reported 1.57 NW 1.57 W 2.46 W No 0.000 No Precipitation 06/07/2019 11:50 AM 06/07/2019 11:55 AM 0.000 0.000 0.000 0.000 0.000 Not Reported Not Reported
06/24/2019 04:28 AM 45.86 41.72 36.68 76.64 44.60 70.0 Not Reported 0.22 W 0.45 W 2.46 W No 0.000 No Precipitation 06/07/2019 11:50 AM 06/07/2019 11:55 AM 0.000 0.000 0.000 0.000 0.000 Not Reported Not Reported
06/24/2019 04:33 AM 45.86 41.72 36.68 76.64 44.60 70.0 Not Reported 0.22 NW 0.00 NW 1.79 W No 0.000 No Precipitation 06/07/2019 11:50 AM 06/07/2019 11:55 AM 0.000 0.000 0.000 0.000 0.000 Not Reported Not Reported
06/24/2019 04:38 AM 45.86 41.72 36.86 76.64 44.60 70.0 Not Reported 0.89 W 1.12 W 1.79 W No 0.000 No Precipitation 06/07/2019 11:50 AM 06/07/2019 11:55 AM 0.000 0.000 0.000 0.000 0.000 Not Reported Not Reported
06/24/2019 04:43 AM 45.68 41.54 36.68 76.64 44.60 70.0 Not Reported 0.67 NW 0.00 NW 1.34 W No 0.000 No Precipitation 06/07/2019 11:50 AM 06/07/2019 11:55 AM 0.000 0.000 0.000 0.000 0.000 Not Reported Not Reported
06/24/2019 04:48 AM 45.32 41.36 36.50 76.64 44.60 71.0 Not Reported 2.24 W 2.01 W 1.34 W No 0.000 No Precipitation 06/07/2019 11:50 AM 06/07/2019 11:55 AM 0.000 0.000 0.000 0.000 0.000 Not Reported Not Reported
06/24/2019 04:53 AM 45.32 41.36 36.68 76.64 44.60 71.0 Not Reported 0.67 SW 0.89 SW 2.46 W No 0.000 No Precipitation 06/07/2019 11:50 AM 06/07/2019 11:55 AM 0.000 0.000 0.000 0.000 0.000 Not Reported Not Reported
06/24/2019 04:58 AM 45.32 41.36 36.68 76.64 44.60 71.0 Not Reported 0.00 NW 0.00 NW 2.46 W No 0.000 No Precipitation 06/07/2019 11:50 AM 06/07/2019 11:55 AM 0.000 0.000 0.000 0.000 0.000 Not Reported Not Reported
06/24/2019 05:03 AM 44.96 41.00 36.50 76.64 44.60 71.0 Not Reported 1.79 NW 1.79 W 0.89 SW No 0.000 No Precipitation 06/07/2019 11:50 AM 06/07/2019 11:55 AM 0.000 0.000 0.000 0.000 0.000 Not Reported Not Reported
06/24/2019 05:08 AM 44.78 41.18 36.68 76.64 44.60 72.0 Not Reported 1.34 W 1.57 W 0.89 SW No 0.000 No Precipitation 06/07/2019 11:50 AM 06/07/2019 11:55 AM 0.000 0.000 0.000 0.000 0.000 Not Reported Not Reported
06/24/2019 05:13 AM 44.42 40.82 36.50 76.64 44.42 73.0 Not Reported 1.34 W 1.34 W 2.24 NW No 0.000 No Precipitation 06/07/2019 11:50 AM 06/07/2019 11:55 AM 0.000 0.000 0.000 0.000 0.000 Not Reported Not Reported
06/24/2019 05:18 AM 44.60 41.00 36.68 76.64 44.24 73.0 Not Reported 1.12 W 0.89 W 2.24 NW No 0.000 No Precipitation 06/07/2019 11:50 AM 06/07/2019 11:55 AM 0.000 0.000 0.000 0.000 0.000 Not Reported Not Reported
06/24/2019 05:23 AM 44.42 40.82 36.50 76.64 44.24 73.0 Not Reported 1.34 W 0.89 SW 1.79 W No 0.000 No Precipitation 06/07/2019 11:50 AM 06/07/2019 11:55 AM 0.000 0.000 0.000 0.000 0.000 Not Reported Not Reported
06/24/2019 05:28 AM 44.42 40.82 36.50 76.64 44.24 73.0 Not Reported 1.34 NW 1.34 NW 1.79 W No 0.000 No Precipitation 06/07/2019 11:50 AM 06/07/2019 11:55 AM 0.000 0.000 0.000 0.000 0.000 Not Reported Not Reported
06/24/2019 05:33 AM 44.42 40.82 36.68 76.64 44.24 74.0 Not Reported 1.79 W 1.57 W 1.79 W No 0.000 No Precipitation 06/07/2019 11:50 AM 06/07/2019 11:55 AM 0.000 0.000 0.000 0.000 0.000 Not Reported Not Reported
06/24/2019 05:38 AM 44.42 40.82 36.68 76.64 44.24 73.0 Not Reported 1.12 W 1.57 W 1.79 W No 0.000 No Precipitation 06/07/2019 11:50 AM 06/07/2019 11:55 AM 0.000 0.000 0.000 0.000 0.000 Not Reported Not Reported
06/24/2019 05:43 AM 44.24 40.82 36.68 76.64 44.24 74.0 Not Reported 2.46 W 2.01 W 2.01 W No 0.000 No Precipitation 06/07/2019 11:50 AM 06/07/2019 11:55 AM 0.000 0.000 0.000 0.000 0.000 Not Reported Not Reported
06/24/2019 05:48 AM 44.42 40.82 36.68 76.64 44.24 73.0 Not Reported 1.34 W 2.01 W 2.01 W No 0.000 No Precipitation 06/07/2019 11:50 AM 06/07/2019 11:55 AM 0.000 0.000 0.000 0.000 0.000 Not Reported Not Reported
06/24/2019 05:53 AM 44.06 40.64 36.50 76.64 44.06 74.0 Not Reported 1.57 W 0.89 W 2.68 W No 0.000 No Precipitation 06/07/2019 11:50 AM 06/07/2019 11:55 AM 0.000 0.000 0.000 0.000 0.000 Not Reported Not Reported
06/24/2019 05:58 AM 44.06 40.64 36.50 76.64 44.06 74.0 Not Reported 1.12 W 1.12 W 2.68 W No 0.000 No Precipitation 06/07/2019 11:50 AM 06/07/2019 11:55 AM 0.000 0.000 0.000 0.000 0.000 Not Reported Not Reported
06/24/2019 06:03 AM 44.24 40.82 36.86 76.64 44.06 74.0 Not Reported 1.79 W 1.79 W 2.01 W No 0.000 No Precipitation 06/07/2019 11:50 AM 06/07/2019 11:55 AM 0.000 0.000 0.000 0.000 0.000 Not Reported Not Reported
06/24/2019 06:08 AM 44.06 40.64 36.50 76.64 44.06 74.0 Not Reported 0.89 W 0.67 W 2.01 W No 0.000 No Precipitation 06/07/2019 11:50 AM 06/07/2019 11:55 AM 0.000 0.000 0.000 0.000 0.000 Not Reported Not Reported
06/24/2019 06:13 AM 43.88 40.64 36.50 76.64 43.88 75.0 Not Reported 0.89 W 0.67 W 2.01 W No 0.000 No Precipitation 06/07/2019 11:50 AM 06/07/2019 11:55 AM 0.000 0.000 0.000 0.000 0.000 Not Reported Not Reported
06/24/2019 06:18 AM 43.88 40.64 36.68 76.64 43.88 75.0 Not Reported 0.67 W 1.34 W 2.01 W No 0.000 No Precipitation 06/07/2019 11:50 AM 06/07/2019 11:55 AM 0.000 0.000 0.000 0.000 0.000 Not Reported Not Reported
06/24/2019 06:23 AM 43.70 40.64 36.68 76.64 43.70 76.0 Not Reported 1.12 W 1.12 W 1.34 W No 0.000 No Precipitation 06/07/2019 11:50 AM 06/07/2019 11:55 AM 0.000 0.000 0.000 0.000 0.000 Not Reported Not Reported
06/24/2019 06:28 AM 43.70 40.64 36.86 76.64 43.70 76.0 Not Reported 1.12 W 0.89 W 1.34 W No 0.000 No Precipitation 06/07/2019 11:50 AM 06/07/2019 11:55 AM 0.000 0.000 0.000 0.000 0.000 Not Reported Not Reported
06/24/2019 06:33 AM 43.88 40.64 36.86 76.64 43.70 76.0 Not Reported 1.12 W 1.57 W 1.34 W No 0.000 No Precipitation 06/07/2019 11:50 AM 06/07/2019 11:55 AM 0.000 0.000 0.000 0.000 0.000 Not Reported Not Reported
06/24/2019 06:38 AM 43.88 40.64 36.86 76.64 43.70 76.0 Not Reported 2.01 W 2.01 W 1.34 W No 0.000 No Precipitation 06/07/2019 11:50 AM 06/07/2019 11:55 AM 0.000 0.000 0.000 0.000 0.000 Not Reported Not Reported
06/24/2019 06:43 AM 44.06 40.64 36.68 76.64 43.70 74.0 Not Reported 1.57 W 1.12 W 2.46 W No 0.000 No Precipitation 06/07/2019 11:50 AM 06/07/2019 11:55 AM 0.000 0.000 0.000 0.000 0.000 Not Reported Not Reported
06/24/2019 06:48 AM 44.24 40.82 36.86 76.64 43.70 75.0 Not Reported 0.89 W 0.89 W 2.46 W No 0.000 No Precipitation 06/07/2019 11:50 AM 06/07/2019 11:55 AM 0.000 0.000 0.000 0.000 0.000 Not Reported Not Reported
06/24/2019 06:53 AM 43.88 40.64 36.68 76.64 43.70 75.0 Not Reported 1.57 W 1.57 W 1.79 W No 0.000 No Precipitation 06/07/2019 11:50 AM 06/07/2019 11:55 AM 0.000 0.000 0.000 0.000 0.000 Not Reported Not Reported
06/24/2019 06:58 AM 44.06 40.82 36.86 76.64 43.70 75.0 Not Reported 1.57 W 1.79 W 1.79 W No 0.000 No Precipitation 06/07/2019 11:50 AM 06/07/2019 11:55 AM 0.000 0.000 0.000 0.000 0.000 Not Reported Not Reported
06/24/2019 07:03 AM 44.24 40.82 36.86 76.64 43.70 75.0 Not Reported 1.57 W 1.12 W 2.01 W No 0.000 No Precipitation 06/07/2019 11:50 AM 06/07/2019 11:55 AM 0.000 0.000 0.000 0.000 0.000 Not Reported Not Reported
06/24/2019 07:08 AM 44.60 41.18 37.22 76.64 43.70 74.0 Not Reported 1.34 W 1.34 W 2.01 W No 0.000 No Precipitation 06/07/2019 11:50 AM 06/07/2019 11:55 AM 0.000 0.000 0.000 0.000 0.000 Not Reported Not Reported
06/24/2019 07:13 AM 44.60 41.18 37.04 76.64 43.70 74.0 Not Reported 1.34 W 1.34 W 1.79 W No 0.000 No Precipitation 06/07/2019 11:50 AM 06/07/2019 11:55 AM 0.000 0.000 0.000 0.000 0.000 Not Reported Not Reported
06/24/2019 07:18 AM 44.60 41.18 37.22 76.64 43.70 75.0 Not Reported 1.12 W 1.12 W 1.79 W No 0.000 No Precipitation 06/07/2019 11:50 AM 06/07/2019 11:55 AM 0.000 0.000 0.000 0.000 0.000 Not Reported Not Reported
06/24/2019 07:23 AM 44.96 41.54 37.58 76.64 43.70 75.0 Not Reported 1.34 W 1.79 W 1.57 W No 0.000 No Precipitation 06/07/2019 11:50 AM 06/07/2019 11:55 AM 0.000 0.000 0.000 0.000 0.000 Not Reported Not Reported
06/24/2019 07:28 AM 45.14 41.90 37.94 76.64 43.70 75.0 Not Reported 1.57 W 1.57 W 1.57 W No 0.000 No Precipitation 06/07/2019 11:50 AM 06/07/2019 11:55 AM 0.000 0.000 0.000 0.000 0.000 Not Reported Not Reported
06/24/2019 07:33 AM 45.50 42.08 38.12 76.64 43.70 75.0 Not Reported 1.34 W 1.12 W 1.79 W No 0.000 No Precipitation 06/07/2019 11:50 AM 06/07/2019 11:55 AM 0.000 0.000 0.000 0.000 0.000 Not Reported Not Reported
06/24/2019 07:38 AM 45.68 42.26 38.48 76.64 43.70 75.0 Not Reported 1.57 W 1.57 W 1.79 W No 0.000 No Precipitation 06/07/2019 11:50 AM 06/07/2019 11:55 AM 0.000 0.000 0.000 0.000 0.000 Not Reported Not Reported
06/24/2019 07:43 AM 46.04 42.62 38.84 76.64 43.70 75.0 Not Reported 1.34 W 1.34 W 1.79 W No 0.000 No Precipitation 06/07/2019 11:50 AM 06/07/2019 11:55 AM 0.000 0.000 0.000 0.000 0.000 Not Reported Not Reported
06/24/2019 07:48 AM 46.58 43.16 39.38 76.64 43.70 75.0 Not Reported 1.34 W 1.34 W 1.79 W No 0.000 No Precipitation 06/07/2019 11:50 AM 06/07/2019 11:55 AM 0.000 0.000 0.000 0.000 0.000 Not Reported Not Reported
06/24/2019 07:53 AM 47.12 43.88 40.28 76.64 43.70 76.0 Not Reported 0.89 W 1.34 SW 1.79 W No 0.000 No Precipitation 06/07/2019 11:50 AM 06/07/2019 11:55 AM 0.000 0.000 0.000 0.000 0.000 Not Reported Not Reported
06/24/2019 07:58 AM 47.48 44.06 40.46 76.64 43.70 76.0 Not Reported 1.79 W 1.34 W 1.79 W No 0.000 No Precipitation 06/07/2019 11:50 AM 06/07/2019 11:55 AM 0.000 0.000 0.000 0.000 0.000 Not Reported Not Reported
06/24/2019 08:03 AM 48.02 44.42 40.82 76.64 43.70 76.0 Not Reported 1.34 W 2.01 W 2.68 W No 0.000 No Precipitation 06/07/2019 11:50 AM 06/07/2019 11:55 AM 0.000 0.000 0.000 0.000 0.000 Not Reported Not Reported
06/24/2019 08:08 AM 48.92 45.32 41.54 76.64 43.70 75.0 Not Reported 1.34 W 1.79 W 2.68 W No 0.000 No Precipitation 06/07/2019 11:50 AM 06/07/2019 11:55 AM 0.000 0.000 0.000 0.000 0.000 Not Reported Not Reported
06/24/2019 08:13 AM 49.46 45.68 41.90 76.64 43.70 74.0 Not Reported 1.57 W 1.34 W 3.36 W No 0.000 No Precipitation 06/07/2019 11:50 AM 06/07/2019 11:55 AM 0.000 0.000 0.000 0.000 0.000 Not Reported Not Reported
06/24/2019 08:18 AM 50.72 46.40 42.44 76.64 43.70 73.0 Not Reported 0.67 SW 0.67 SW 3.36 W No 0.000 No Precipitation 06/07/2019 11:50 AM 06/07/2019 11:55 AM 0.000 0.000 0.000 0.000 0.000 Not Reported Not Reported
06/24/2019 08:23 AM 51.44 47.12 42.80 76.64 43.70 72.0 Not Reported 0.89 SW 0.67 SW 2.01 W No 0.000 No Precipitation 06/07/2019 11:50 AM 06/07/2019 11:55 AM 0.000 0.000 0.000 0.000 0.000 Not Reported Not Reported
06/24/2019 08:28 AM 52.34 47.84 43.34 76.64 43.70 71.0 Not Reported 0.89 SW 1.12 SW 2.01 W No 0.000 No Precipitation 06/07/2019 11:50 AM 06/07/2019 11:55 AM 0.000 0.000 0.000 0.000 0.000 Not Reported Not Reported
06/24/2019 08:33 AM 53.06 48.20 43.88 76.64 43.70 70.0 Not Reported 1.57 SW 1.57 SW 1.34 SW No 0.000 No Precipitation 06/07/2019 11:50 AM 06/07/2019 11:55 AM 0.000 0.000 0.000 0.000 0.000 Not Reported Not Reported
06/24/2019 08:38 AM 54.68 49.10 43.70 76.64 43.70 66.0 Not Reported 1.57 SW 0.89 SW 1.34 SW No 0.000 No Precipitation 06/07/2019 11:50 AM 06/07/2019 11:55 AM 0.000 0.000 0.000 0.000 0.000 Not Reported Not Reported
06/24/2019 08:43 AM 55.94 49.82 44.60 76.64 43.70 65.0 Not Reported 1.34 W 1.79 W 2.46 SW No 0.000 No Precipitation 06/07/2019 11:50 AM 06/07/2019 11:55 AM 0.000 0.000 0.000 0.000 0.000 Not Reported Not Reported
06/24/2019 08:48 AM 57.56 50.54 44.24 76.64 43.70 61.0 Not Reported 0.22 SW 0.45 SW 2.46 SW No 0.000 No Precipitation 06/07/2019 11:50 AM 06/07/2019 11:55 AM 0.000 0.000 0.000 0.000 0.000 Not Reported Not Reported
06/24/2019 08:53 AM 58.28 49.64 41.54 76.64 43.70 53.0 Not Reported 1.12 SW 0.45 SW 2.68 SW No 0.000 No Precipitation 06/07/2019 11:50 AM 06/07/2019 11:55 AM 0.000 0.000 0.000 0.000 0.000 Not Reported Not Reported
06/24/2019 08:58 AM 58.82 50.00 41.72 76.64 43.70 52.0 Not Reported 1.34 W 1.57 W 2.68 SW No 0.000 No Precipitation 06/07/2019 11:50 AM 06/07/2019 11:55 AM 0.000 0.000 0.000 0.000 0.000 Not Reported Not Reported
06/24/2019 09:03 AM 60.08 50.00 40.28 76.64 43.70 47.0 Not Reported 0.45 W 0.00 NW 1.57 SW No 0.000 No Precipitation 06/07/2019 11:50 AM 06/07/2019 11:55 AM 0.000 0.000 0.000 0.000 0.000 Not Reported Not Reported
06/24/2019 09:08 AM 61.16 50.54 40.46 76.64 43.70 46.0 Not Reported 1.12 SW 1.57 W 1.57 SW No 0.000 No Precipitation 06/07/2019 11:50 AM 06/07/2019 11:55 AM 0.000 0.000 0.000 0.000 0.000 Not Reported Not Reported
06/24/2019 09:13 AM 61.34 51.08 41.54 76.64 43.70 47.0 Not Reported 1.79 SW 2.68 SW 1.79 SW No 0.000 No Precipitation 06/07/2019 11:50 AM 06/07/2019 11:55 AM 0.000 0.000 0.000 0.000 0.000 Not Reported Not Reported
06/24/2019 09:18 AM 61.70 50.90 41.00 76.64 43.70 46.0 Not Reported 2.01 SW 2.46 SW 1.79 SW No 0.000 No Precipitation 06/07/2019 11:50 AM 06/07/2019 11:55 AM 0.000 0.000 0.000 0.000 0.000 Not Reported Not Reported
06/24/2019 09:23 AM 61.16 50.54 40.82 76.64 43.70 46.0 Not Reported 2.24 SW 2.24 SW 4.03 SW No 0.000 No Precipitation 06/07/2019 11:50 AM 06/07/2019 11:55 AM 0.000 0.000 0.000 0.000 0.000 Not Reported Not Reported
06/24/2019 09:28 AM 61.16 50.36 40.10 76.64 43.70 45.0 Not Reported 2.91 SW 3.80 SW 4.03 SW No 0.000 No Precipitation 06/07/2019 11:50 AM 06/07/2019 11:55 AM 0.000 0.000 0.000 0.000 0.000 Not Reported Not Reported
06/24/2019 09:33 AM 61.34 50.18 39.56 76.64 43.70 44.0 Not Reported 2.46 SW 2.91 SW 3.80 SW No 0.000 No Precipitation 06/07/2019 11:50 AM 06/07/2019 11:55 AM 0.000 0.000 0.000 0.000 0.000 Not Reported Not Reported
06/24/2019 09:38 AM 60.80 50.54 40.82 76.64 43.70 47.0 Not Reported 2.68 W 1.57 W 3.80 SW No 0.000 No Precipitation 06/07/2019 11:50 AM 06/07/2019 11:55 AM 0.000 0.000 0.000 0.000 0.000 Not Reported Not Reported
06/24/2019 09:43 AM 60.80 51.08 42.26 76.64 43.70 50.0 Not Reported 3.80 W 1.12 SW 4.70 W No 0.000 No Precipitation 06/07/2019 11:50 AM 06/07/2019 11:55 AM 0.000 0.000 0.000 0.000 0.000 Not Reported Not Reported
06/24/2019 09:48 AM 61.70 50.90 40.82 76.64 43.70 46.0 Not Reported 2.46 SW 2.24 SW 4.70 W No 0.000 No Precipitation 06/07/2019 11:50 AM 06/07/2019 11:55 AM 0.000 0.000 0.000 0.000 0.000 Not Reported Not Reported
06/24/2019 09:53 AM 61.16 50.90 41.54 76.64 43.70 48.0 Not Reported 2.24 W 1.57 SW 4.25 W No 0.000 No Precipitation 06/07/2019 11:50 AM 06/07/2019 11:55 AM 0.000 0.000 0.000 0.000 0.000 Not Reported Not Reported
06/24/2019 09:58 AM 61.88 50.72 40.28 76.64 43.70 44.0 Not Reported 2.46 SW 2.91 SW 4.25 W No 0.000 No Precipitation 06/07/2019 11:50 AM 06/07/2019 11:55 AM 0.000 0.000 0.000 0.000 0.000 Not Reported Not Reported
06/24/2019 10:03 AM 62.24 51.26 41.18 76.64 43.70 45.0 Not Reported 2.46 SW 1.57 SW 3.36 SW No 0.000 No Precipitation 06/07/2019 11:50 AM 06/07/2019 11:55 AM 0.000 0.000 0.000 0.000 0.000 Not Reported Not Reported
06/24/2019 10:08 AM 62.42 51.08 40.28 76.64 43.70 44.0 Not Reported 2.68 SW 3.36 W 3.36 SW No 0.000 No Precipitation 06/07/2019 11:50 AM 06/07/2019 11:55 AM 0.000 0.000 0.000 0.000 0.000 Not Reported Not Reported
06/24/2019 10:13 AM 61.52 50.54 40.28 76.64 43.70 45.0 Not Reported 4.25 W 5.37 W 3.58 SW No 0.000 No Precipitation 06/07/2019 11:50 AM 06/07/2019 11:55 AM 0.000 0.000 0.000 0.000 0.000 Not Reported Not Reported
06/24/2019 10:18 AM 61.88 51.08 41.00 76.64 43.70 46.0 Not Reported 2.91 W 2.24 NW 3.58 SW No 0.000 No Precipitation 06/07/2019 11:50 AM 06/07/2019 11:55 AM 0.000 0.000 0.000 0.000 0.000 Not Reported Not Reported
06/24/2019 10:23 AM 63.14 51.80 41.54 76.64 43.70 44.0 Not Reported 2.01 W 2.91 SW 5.59 W No 0.000 No Precipitation 06/07/2019 11:50 AM 06/07/2019 11:55 AM 0.000 0.000 0.000 0.000 0.000 Not Reported Not Reported
06/24/2019 10:28 AM 61.88 51.08 40.10 76.64 43.70 45.0 Not Reported 2.46 W 2.46 W 5.59 W No 0.000 No Precipitation 06/07/2019 11:50 AM 06/07/2019 11:55 AM 0.000 0.000 0.000 0.000 0.000 Not Reported Not Reported
06/24/2019 10:33 AM 62.60 51.44 40.28 76.64 43.70 43.0 Not Reported 2.68 SW 3.13 W 3.80 W No 0.000 No Precipitation 06/07/2019 11:50 AM 06/07/2019 11:55 AM 0.000 0.000 0.000 0.000 0.000 Not Reported Not Reported
06/24/2019 10:38 AM 62.96 51.80 41.90 76.64 43.70 45.0 Not Reported 3.80 SW 3.36 SW 3.80 W No 0.000 No Precipitation 06/07/2019 11:50 AM 06/07/2019 11:55 AM 0.000 0.000 0.000 0.000 0.000 Not Reported Not Reported
06/24/2019 10:43 AM 63.68 52.34 42.26 76.64 43.70 45.0 Not Reported 3.58 SW 3.36 W 5.14 SW No 0.000 No Precipitation 06/07/2019 11:50 AM 06/07/2019 11:55 AM 0.000 0.000 0.000 0.000 0.000 Not Reported Not Reported
06/24/2019 10:48 AM 63.14 51.98 41.72 76.64 43.70 45.0 Not Reported 3.13 S 2.24 SW 5.14 SW No 0.000 No Precipitation 06/07/2019 11:50 AM 06/07/2019 11:55 AM 0.000 0.000 0.000 0.000 0.000 Not Reported Not Reported
06/24/2019 10:53 AM 63.32 51.62 40.82 76.64 43.70 43.0 Not Reported 2.24 SW 0.00 NW 5.59 SW No 0.000 No Precipitation 06/07/2019 11:50 AM 06/07/2019 11:55 AM 0.000 0.000 0.000 0.000 0.000 Not Reported Not Reported
06/24/2019 10:58 AM 63.32 51.26 39.74 76.64 43.70 41.0 Not Reported 0.45 W 0.00 W 5.59 SW No 0.000 No Precipitation 06/07/2019 11:50 AM 06/07/2019 11:55 AM 0.000 0.000 0.000 0.000 0.000 Not Reported Not Reported
06/24/2019 11:03 AM 64.04 51.98 41.00 76.64 43.70 42.0 Not Reported 3.13 W 3.13 W 3.13 S No 0.000 No Precipitation 06/07/2019 11:50 AM 06/07/2019 11:55 AM 0.000 0.000 0.000 0.000 0.000 Not Reported Not Reported
06/24/2019 11:08 AM 63.86 51.80 40.64 76.64 43.70 42.0 Not Reported 3.13 S 2.91 S 3.13 S No 0.000 No Precipitation 06/07/2019 11:50 AM 06/07/2019 11:55 AM 0.000 0.000 0.000 0.000 0.000 Not Reported Not Reported
06/24/2019 11:13 AM 64.58 52.16 40.64 76.64 43.70 41.0 Not Reported 2.01 SE 3.80 SE 4.47 SW No 0.000 No Precipitation 06/07/2019 11:50 AM 06/07/2019 11:55 AM 0.000 0.000 0.000 0.000 0.000 Not Reported Not Reported
06/24/2019 11:18 AM 64.40 52.16 40.64 76.64 43.70 41.0 Not Reported 2.01 W 2.01 SW 4.47 SW No 0.000 No Precipitation 06/07/2019 11:50 AM 06/07/2019 11:55 AM 0.000 0.000 0.000 0.000 0.000 Not Reported Not Reported
06/24/2019 11:23 AM 64.40 52.16 40.82 76.64 43.70 41.0 Not Reported 2.46 SE 0.45 E 3.80 SE No 0.000 No Precipitation 06/07/2019 11:50 AM 06/07/2019 11:55 AM 0.000 0.000 0.000 0.000 0.000 Not Reported Not Reported
06/24/2019 11:28 AM 65.12 52.70 41.54 76.64 43.70 42.0 Not Reported 2.46 S 2.68 S 3.80 SE No 0.000 No Precipitation 06/07/2019 11:50 AM 06/07/2019 11:55 AM 0.000 0.000 0.000 0.000 0.000 Not Reported Not Reported
06/24/2019 11:33 AM 64.58 52.16 40.82 76.64 43.70 41.0 Not Reported 3.80 S 0.45 NW 3.36 S No 0.000 No Precipitation 06/07/2019 11:50 AM 06/07/2019 11:55 AM 0.000 0.000 0.000 0.000 0.000 Not Reported Not Reported
06/24/2019 11:38 AM 65.66 53.06 42.08 76.64 43.70 42.0 Not Reported 3.13 SW 2.68 S 3.36 S No 0.000 No Precipitation 06/07/2019 11:50 AM 06/07/2019 11:55 AM 0.000 0.000 0.000 0.000 0.000 Not Reported Not Reported
06/24/2019 11:43 AM 65.66 52.88 41.36 76.64 43.70 41.0 Not Reported 2.91 NW 2.91 W 5.37 SE No 0.000 No Precipitation 06/07/2019 11:50 AM 06/07/2019 11:55 AM 0.000 0.000 0.000 0.000 0.000 Not Reported Not Reported
06/24/2019 11:48 AM 66.38 53.24 41.72 76.64 43.70 40.0 Not Reported 4.70 W 6.04 NW 5.37 SE No 0.000 No Precipitation 06/07/2019 11:50 AM 06/07/2019 11:55 AM 0.000 0.000 0.000 0.000 0.000 Not Reported Not Reported
06/24/2019 11:53 AM 66.56 53.42 41.72 76.64 43.70 40.0 Not Reported 4.47 W 4.25 SW 6.04 NW No 0.000 No Precipitation 06/07/2019 11:50 AM 06/07/2019 11:55 AM 0.000 0.000 0.000 0.000 0.000 Not Reported Not Reported
06/24/2019 11:58 AM 66.20 53.42 42.26 76.64 43.70 41.0 Not Reported 2.24 W 1.57 SW 6.04 NW No 0.000 No Precipitation 06/07/2019 11:50 AM 06/07/2019 11:55 AM 0.000 0.000 0.000 0.000 0.000 Not Reported Not Reported
06/24/2019 12:03 PM 67.10 53.60 41.72 76.64 43.70 39.0 Not Reported 3.80 SW 4.03 W 6.71 SW No 0.000 No Precipitation 06/07/2019 11:50 AM 06/07/2019 11:55 AM 0.000 0.000 0.000 0.000 0.000 Not Reported Not Reported
06/24/2019 12:08 PM 67.46 53.06 39.74 76.64 43.70 36.0 Not Reported 6.04 W 5.37 W 6.71 SW No 0.000 No Precipitation 06/07/2019 11:50 AM 06/07/2019 11:55 AM 0.000 0.000 0.000 0.000 0.000 Not Reported Not Reported
06/24/2019 12:13 PM 67.46 52.16 37.58 76.64 43.70 33.0 Not Reported 4.92 W 4.70 SW 6.71 NW No 0.000 No Precipitation 06/07/2019 11:50 AM 06/07/2019 11:55 AM 0.000 0.000 0.000 0.000 0.000 Not Reported Not Reported
06/24/2019 12:18 PM 69.08 53.42 39.20 76.64 43.70 33.0 Not Reported 3.58 SW 3.13 SW 6.71 NW No 0.000 No Precipitation 06/07/2019 11:50 AM 06/07/2019 11:55 AM 0.000 0.000 0.000 0.000 0.000 Not Reported Not Reported
06/24/2019 12:23 PM 67.64 52.16 37.40 76.64 43.70 32.0 Not Reported 5.82 W 6.04 NW 8.72 W No 0.000 No Precipitation 06/07/2019 11:50 AM 06/07/2019 11:55 AM 0.000 0.000 0.000 0.000 0.000 Not Reported Not Reported
06/24/2019 12:28 PM 70.70 53.60 37.58 76.64 43.70 29.0 Not Reported 4.70 SW 5.14 W 8.72 W No 0.000 No Precipitation 06/07/2019 11:50 AM 06/07/2019 11:55 AM 0.000 0.000 0.000 0.000 0.000 Not Reported Not Reported
06/24/2019 12:33 PM 70.34 53.24 37.04 76.64 43.70 29.0 Not Reported 3.80 W 3.80 W 8.05 W No 0.000 No Precipitation 06/07/2019 11:50 AM 06/07/2019 11:55 AM 0.000 0.000 0.000 0.000 0.000 Not Reported Not Reported
06/24/2019 12:38 PM 70.70 53.60 37.22 76.64 43.70 29.0 Not Reported 5.14 W 4.92 SW 8.05 W No 0.000 No Precipitation 06/07/2019 11:50 AM 06/07/2019 11:55 AM 0.000 0.000 0.000 0.000 0.000 Not Reported Not Reported
06/24/2019 12:43 PM 69.98 52.34 34.34 76.64 43.70 26.0 Not Reported 2.24 SW 7.38 SW 6.04 W No 0.000 No Precipitation 06/07/2019 11:50 AM 06/07/2019 11:55 AM 0.000 0.000 0.000 0.000 0.000 Not Reported Not Reported
06/24/2019 12:48 PM 69.80 53.24 37.40 76.64 43.70 30.0 Not Reported 4.92 SW 3.58 W 6.04 W No 0.000 No Precipitation 06/07/2019 11:50 AM 06/07/2019 11:55 AM 0.000 0.000 0.000 0.000 0.000 Not Reported Not Reported
06/24/2019 12:53 PM 69.98 53.24 37.04 76.64 43.70 29.0 Not Reported 5.37 SW 5.14 SW 7.38 SW No 0.000 No Precipitation 06/07/2019 11:50 AM 06/07/2019 11:55 AM 0.000 0.000 0.000 0.000 0.000 Not Reported Not Reported
06/24/2019 12:58 PM 68.90 53.24 38.30 76.64 43.70 32.0 Not Reported 5.59 NW 7.38 W 7.38 SW No 0.000 No Precipitation 06/07/2019 11:50 AM 06/07/2019 11:55 AM 0.000 0.000 0.000 0.000 0.000 Not Reported Not Reported
06/24/2019 01:03 PM 68.90 53.42 39.02 76.64 43.70 33.0 Not Reported 6.71 W 4.25 W 8.05 W No 0.000 No Precipitation 06/07/2019 11:50 AM 06/07/2019 11:55 AM 0.000 0.000 0.000 0.000 0.000 Not Reported Not Reported
06/24/2019 01:08 PM 69.44 54.14 40.28 76.64 43.70 34.0 Not Reported 5.14 W 3.80 NW 8.05 W No 0.000 No Precipitation 06/07/2019 11:50 AM 06/07/2019 11:55 AM 0.000 0.000 0.000 0.000 0.000 Not Reported Not Reported
06/24/2019 01:13 PM 68.90 53.24 38.48 76.64 43.70 32.0 Not Reported 6.71 SW 4.25 W 8.05 SW No 0.000 No Precipitation 06/07/2019 11:50 AM 06/07/2019 11:55 AM 0.000 0.000 0.000 0.000 0.000 Not Reported Not Reported
06/24/2019 01:18 PM 68.36 51.80 35.24 76.64 43.70 29.0 Not Reported 4.03 W 4.92 W 8.05 SW No 0.000 No Precipitation 06/07/2019 11:50 AM 06/07/2019 11:55 AM 0.000 0.000 0.000 0.000 0.000 Not Reported Not Reported
06/24/2019 01:23 PM 68.00 52.70 38.12 76.64 43.70 33.0 Not Reported 4.92 W 1.34 W 8.28 SW No 0.000 No Precipitation 06/07/2019 11:50 AM 06/07/2019 11:55 AM 0.000 0.000 0.000 0.000 0.000 Not Reported Not Reported
06/24/2019 01:28 PM 68.90 52.34 35.96 76.64 43.70 29.0 Not Reported 5.82 W 5.14 W 8.28 SW No 0.000 No Precipitation 06/07/2019 11:50 AM 06/07/2019 11:55 AM 0.000 0.000 0.000 0.000 0.000 Not Reported Not Reported
06/24/2019 01:33 PM 68.72 52.70 37.04 76.64 43.70 31.0 Not Reported 3.58 SW 2.68 W 6.93 SW No 0.000 No Precipitation 06/07/2019 11:50 AM 06/07/2019 11:55 AM 0.000 0.000 0.000 0.000 0.000 Not Reported Not Reported
06/24/2019 01:38 PM 69.26 52.34 35.42 76.64 43.70 28.0 Not Reported 4.03 W 4.92 W 6.93 SW No 0.000 No Precipitation 06/07/2019 11:50 AM 06/07/2019 11:55 AM 0.000 0.000 0.000 0.000 0.000 Not Reported Not Reported
06/24/2019 01:43 PM 69.44 52.16 34.70 76.64 43.70 27.0 Not Reported 3.58 W 8.72 W 5.37 SW No 0.000 No Precipitation 06/07/2019 11:50 AM 06/07/2019 11:55 AM 0.000 0.000 0.000 0.000 0.000 Not Reported Not Reported
06/24/2019 01:48 PM 69.62 52.34 35.06 76.64 43.70 27.0 Not Reported 6.49 SW 5.14 SW 5.37 SW No 0.000 No Precipitation 06/07/2019 11:50 AM 06/07/2019 11:55 AM 0.000 0.000 0.000 0.000 0.000 Not Reported Not Reported
06/24/2019 01:53 PM 69.62 52.70 35.78 76.64 43.70 28.0 Not Reported 5.37 W 6.04 SW 8.72 W No 0.000 No Precipitation 06/07/2019 11:50 AM 06/07/2019 11:55 AM 0.000 0.000 0.000 0.000 0.000 Not Reported Not Reported
06/24/2019 01:58 PM 69.80 52.52 35.24 76.64 43.70 27.0 Not Reported 5.37 W 3.36 SW 8.72 W No 0.000 No Precipitation 06/07/2019 11:50 AM 06/07/2019 11:55 AM 0.000 0.000 0.000 0.000 0.000 Not Reported Not Reported
06/24/2019 02:03 PM 69.98 51.98 33.26 76.64 43.70 25.0 Not Reported 6.71 SW 4.70 W 7.83 NW No 0.000 No Precipitation 06/07/2019 11:50 AM 06/07/2019 11:55 AM 0.000 0.000 0.000 0.000 0.000 Not Reported Not Reported
06/24/2019 02:08 PM 70.16 51.98 32.72 76.64 43.70 24.0 Not Reported 4.25 SW 2.68 SW 7.83 NW No 0.000 No Precipitation 06/07/2019 11:50 AM 06/07/2019 11:55 AM 0.000 0.000 0.000 0.000 0.000 Not Reported Not Reported
06/24/2019 02:13 PM 71.24 52.34 32.90 76.64 43.70 24.0 Not Reported 5.82 W 10.07 W 9.17 W No 0.000 No Precipitation 06/07/2019 11:50 AM 06/07/2019 11:55 AM 0.000 0.000 0.000 0.000 0.000 Not Reported Not Reported
06/24/2019 02:18 PM 71.60 52.88 33.98 76.64 43.70 25.0 Not Reported 3.36 W 4.03 NW 9.17 W No 0.000 No Precipitation 06/07/2019 11:50 AM 06/07/2019 11:55 AM 0.000 0.000 0.000 0.000 0.000 Not Reported Not Reported
06/24/2019 02:23 PM 73.04 54.32 36.86 76.64 43.70 26.0 Not Reported 4.47 SW 6.04 W 10.07 W No 0.000 No Precipitation 06/07/2019 11:50 AM 06/07/2019 11:55 AM 0.000 0.000 0.000 0.000 0.000 Not Reported Not Reported
06/24/2019 02:28 PM 72.14 52.70 32.72 76.64 43.70 23.0 Not Reported 4.92 NW 6.49 W 10.07 W No 0.000 No Precipitation 06/07/2019 11:50 AM 06/07/2019 11:55 AM 0.000 0.000 0.000 0.000 0.000 Not Reported Not Reported
06/24/2019 02:33 PM 72.32 53.06 33.62 76.64 43.70 24.0 Not Reported 4.70 W 4.03 W 7.38 W No 0.000 No Precipitation 06/07/2019 11:50 AM 06/07/2019 11:55 AM 0.000 0.000 0.000 0.000 0.000 Not Reported Not Reported
06/24/2019 02:38 PM 73.22 53.78 34.88 76.64 43.70 24.0 Not Reported 4.25 SW 6.26 SW 7.38 W No 0.000 No Precipitation 06/07/2019 11:50 AM 06/07/2019 11:55 AM 0.000 0.000 0.000 0.000 0.000 Not Reported Not Reported
06/24/2019 02:43 PM 73.58 53.78 34.34 76.64 43.70 23.0 Not Reported 3.36 SW 4.92 SW 8.72 SW No 0.000 No Precipitation 06/07/2019 11:50 AM 06/07/2019 11:55 AM 0.000 0.000 0.000 0.000 0.000 Not Reported Not Reported
06/24/2019 02:48 PM 74.48 54.50 35.42 76.64 43.70 24.0 Not Reported 4.03 SW 5.37 W 8.72 SW No 0.000 No Precipitation 06/07/2019 11:50 AM 06/07/2019 11:55 AM 0.000 0.000 0.000 0.000 0.000 Not Reported Not Reported
06/24/2019 02:53 PM 73.76 54.50 37.58 76.64 43.70 24.0 Not Reported 3.80 W 6.26 S 8.05 W No 0.000 No Precipitation 06/07/2019 11:50 AM 06/07/2019 11:55 AM 0.000 0.000 0.000 0.000 0.000 Not Reported Not Reported
06/24/2019 02:58 PM 72.50 53.60 35.24 76.64 43.70 25.0 Not Reported 7.38 SW 11.63 W 8.05 W No 0.000 No Precipitation 06/07/2019 11:50 AM 06/07/2019 11:55 AM 0.000 0.000 0.000 0.000 0.000 Not Reported Not Reported
06/24/2019 03:03 PM 73.22 54.32 36.68 76.64 43.70 26.0 Not Reported 5.82 W 7.38 SW 11.63 W No 0.000 No Precipitation 06/07/2019 11:50 AM 06/07/2019 11:55 AM 0.000 0.000 0.000 0.000 0.000 Not Reported Not Reported
06/24/2019 03:08 PM 73.04 54.32 36.68 76.64 43.70 26.0 Not Reported 4.92 W 3.80 W 11.63 W No 0.000 No Precipitation 06/07/2019 11:50 AM 06/07/2019 11:55 AM 0.000 0.000 0.000 0.000 0.000 Not Reported Not Reported
06/24/2019 03:13 PM 71.42 53.06 34.70 76.64 43.70 26.0 Not Reported 5.59 NW 7.38 NW 7.38 SW No 0.000 No Precipitation 06/07/2019 11:50 AM 06/07/2019 11:55 AM 0.000 0.000 0.000 0.000 0.000 Not Reported Not Reported
06/24/2019 03:18 PM 73.04 53.96 35.24 76.64 43.70 25.0 Not Reported 2.01 S 3.36 SE 7.38 SW No 0.000 No Precipitation 06/07/2019 11:50 AM 06/07/2019 11:55 AM 0.000 0.000 0.000 0.000 0.000 Not Reported Not Reported
06/24/2019 03:23 PM 73.94 54.68 36.68 76.64 43.70 25.0 Not Reported 3.36 SW 8.95 W 8.28 NW No 0.000 No Precipitation 06/07/2019 11:50 AM 06/07/2019 11:55 AM 0.000 0.000 0.000 0.000 0.000 Not Reported Not Reported
06/24/2019 03:28 PM 71.96 53.78 36.32 76.64 43.70 26.0 Not Reported 5.82 W 3.58 W 8.28 NW No 0.000 No Precipitation 06/07/2019 11:50 AM 06/07/2019 11:55 AM 0.000 0.000 0.000 0.000 0.000 Not Reported Not Reported
06/24/2019 03:33 PM 75.20 55.22 37.04 76.64 43.70 25.0 Not Reported 4.03 W 7.16 W 9.17 NW No 0.000 No Precipitation 06/07/2019 11:50 AM 06/07/2019 11:55 AM 0.000 0.000 0.000 0.000 0.000 Not Reported Not Reported
06/24/2019 03:38 PM 73.22 54.32 36.50 76.64 43.70 26.0 Not Reported 5.82 W 4.25 SW 9.17 NW No 0.000 No Precipitation 06/07/2019 11:50 AM 06/07/2019 11:55 AM 0.000 0.000 0.000 0.000 0.000 Not Reported Not Reported
06/24/2019 03:43 PM 72.50 53.96 36.50 76.64 43.70 26.0 Not Reported 5.59 W 4.70 SW 8.28 W No 0.000 No Precipitation 06/07/2019 11:50 AM 06/07/2019 11:55 AM 0.000 0.000 0.000 0.000 0.000 Not Reported Not Reported
06/24/2019 03:48 PM 72.68 54.32 36.86 76.64 43.70 26.0 Not Reported 5.82 W 6.04 W 8.28 W No 0.000 No Precipitation 06/07/2019 11:50 AM 06/07/2019 11:55 AM 0.000 0.000 0.000 0.000 0.000 Not Reported Not Reported
06/24/2019 03:53 PM 72.14 53.78 35.96 76.64 43.70 26.0 Not Reported 4.03 W 5.14 W 8.50 SW No 0.000 No Precipitation 06/07/2019 11:50 AM 06/07/2019 11:55 AM 0.000 0.000 0.000 0.000 0.000 Not Reported Not Reported
06/24/2019 03:58 PM 71.60 53.96 37.40 76.64 43.70 28.0 Not Reported 5.37 W 6.93 W 8.50 SW No 0.000 No Precipitation 06/07/2019 11:50 AM 06/07/2019 11:55 AM 0.000 0.000 0.000 0.000 0.000 Not Reported Not Reported
06/24/2019 04:03 PM 73.04 54.32 36.68 76.64 43.70 26.0 Not Reported 4.70 NW 4.03 W 9.40 W No 0.000 No Precipitation 06/07/2019 11:50 AM 06/07/2019 11:55 AM 0.000 0.000 0.000 0.000 0.000 Not Reported Not Reported
06/24/2019 04:08 PM 73.40 54.32 36.14 76.64 43.70 25.0 Not Reported 4.03 SW 3.36 W 9.40 W No 0.000 No Precipitation 06/07/2019 11:50 AM 06/07/2019 11:55 AM 0.000 0.000 0.000 0.000 0.000 Not Reported Not Reported
06/24/2019 04:13 PM 72.68 54.68 37.22 76.46 43.70 28.0 Not Reported 5.14 W 3.36 W 8.72 W No 0.000 No Precipitation 06/07/2019 11:50 AM 06/07/2019 11:55 AM 0.000 0.000 0.000 0.000 0.000 Not Reported Not Reported
06/24/2019 04:18 PM 73.58 54.50 36.68 76.46 43.70 26.0 Not Reported 3.80 W 2.68 NW 8.72 W No 0.000 No Precipitation 06/07/2019 11:50 AM 06/07/2019 11:55 AM 0.000 0.000 0.000 0.000 0.000 Not Reported Not Reported
06/24/2019 04:23 PM 73.94 54.86 37.40 76.46 43.70 26.0 Not Reported 4.70 W 3.13 W 7.38 NW No 0.000 No Precipitation 06/07/2019 11:50 AM 06/07/2019 11:55 AM 0.000 0.000 0.000 0.000 0.000 Not Reported Not Reported
06/24/2019 04:28 PM 73.04 54.14 35.78 76.46 43.70 25.0 Not Reported 6.04 W 2.91 SW 7.38 NW No 0.000 No Precipitation 06/07/2019 11:50 AM 06/07/2019 11:55 AM 0.000 0.000 0.000 0.000 0.000 Not Reported Not Reported
06/24/2019 04:33 PM 73.58 54.50 36.14 76.46 43.70 25.0 Not Reported 5.82 W 8.95 W 8.28 W No 0.000 No Precipitation 06/07/2019 11:50 AM 06/07/2019 11:55 AM 0.000 0.000 0.000 0.000 0.000 Not Reported Not Reported
06/24/2019 04:38 PM 74.66 54.86 36.32 76.46 43.70 24.0 Not Reported 5.37 SW 5.14 SW 8.28 W No 0.000 No Precipitation 06/07/2019 11:50 AM 06/07/2019 11:55 AM 0.000 0.000 0.000 0.000 0.000 Not Reported Not Reported
06/24/2019 04:43 PM 74.12 54.68 36.32 76.46 43.70 25.0 Not Reported 4.03 NW 1.12 SW 8.95 W No 0.000 No Precipitation 06/07/2019 11:50 AM 06/07/2019 11:55 AM 0.000 0.000 0.000 0.000 0.000 Not Reported Not Reported
06/24/2019 04:48 PM 73.22 54.32 36.32 76.46 43.70 26.0 Not Reported 5.82 W 6.49 W 8.95 W No 0.000 No Precipitation 06/07/2019 11:50 AM 06/07/2019 11:55 AM 0.000 0.000 0.000 0.000 0.000 Not Reported Not Reported
06/24/2019 04:53 PM 72.68 53.78 35.42 76.28 43.70 25.0 Not Reported 5.59 W 4.92 SW 8.05 NW No 0.000 No Precipitation 06/07/2019 11:50 AM 06/07/2019 11:55 AM 0.000 0.000 0.000 0.000 0.000 Not Reported Not Reported
06/24/2019 04:58 PM 71.60 53.06 34.34 76.28 43.70 25.0 Not Reported 4.70 NW 2.68 W 8.05 NW No 0.000 No Precipitation 06/07/2019 11:50 AM 06/07/2019 11:55 AM 0.000 0.000 0.000 0.000 0.000 Not Reported Not Reported
06/24/2019 05:03 PM 71.60 53.42 35.60 76.28 43.70 26.0 Not Reported 2.91 W 4.47 NW 6.93 N No 0.000 No Precipitation 06/07/2019 11:50 AM 06/07/2019 11:55 AM 0.000 0.000 0.000 0.000 0.000 Not Reported Not Reported
06/24/2019 05:08 PM 73.94 54.50 35.60 76.28 43.70 24.0 Not Reported 1.34 S 1.79 W 6.93 N No 0.000 No Precipitation 06/07/2019 11:50 AM 06/07/2019 11:55 AM 0.000 0.000 0.000 0.000 0.000 Not Reported Not Reported
06/24/2019 05:13 PM 71.78 52.88 33.62 76.28 43.70 24.0 Not Reported 6.71 NW 4.92 W 4.92 NE No 0.000 No Precipitation 06/07/2019 11:50 AM 06/07/2019 11:55 AM 0.000 0.000 0.000 0.000 0.000 Not Reported Not Reported
06/24/2019 05:18 PM 72.50 53.60 35.42 76.28 43.70 25.0 Not Reported 3.13 SW 3.58 SW 4.92 NE No 0.000 No Precipitation 06/07/2019 11:50 AM 06/07/2019 11:55 AM 0.000 0.000 0.000 0.000 0.000 Not Reported Not Reported
06/24/2019 05:23 PM 73.40 53.60 33.62 76.28 43.70 23.0 Not Reported 4.25 W 6.71 SW 8.05 NW No 0.000 No Precipitation 06/07/2019 11:50 AM 06/07/2019 11:55 AM 0.000 0.000 0.000 0.000 0.000 Not Reported Not Reported
06/24/2019 05:28 PM 72.50 53.06 33.26 76.28 43.70 23.0 Not Reported 3.58 W 2.01 NW 8.05 NW No 0.000 No Precipitation 06/07/2019 11:50 AM 06/07/2019 11:55 AM 0.000 0.000 0.000 0.000 0.000 Not Reported Not Reported
06/24/2019 05:33 PM 73.76 54.14 35.06 76.28 43.70 24.0 Not Reported 4.03 W 1.12 SE 6.71 SW No 0.000 No Precipitation 06/07/2019 11:50 AM 06/07/2019 11:55 AM 0.000 0.000 0.000 0.000 0.000 Not Reported Not Reported
06/24/2019 05:38 PM 73.04 52.16 29.12 76.28 43.70 19.0 Not Reported 6.49 NW 6.49 W 6.71 SW No 0.000 No Precipitation 06/07/2019 11:50 AM 06/07/2019 11:55 AM 0.000 0.000 0.000 0.000 0.000 Not Reported Not Reported
06/24/2019 05:43 PM 73.22 53.06 32.18 76.28 43.70 22.0 Not Reported 2.24 W 1.12 NW 8.50 W No 0.000 No Precipitation 06/07/2019 11:50 AM 06/07/2019 11:55 AM 0.000 0.000 0.000 0.000 0.000 Not Reported Not Reported
06/24/2019 05:48 PM 72.86 53.60 34.70 76.28 43.70 24.0 Not Reported 7.38 W 6.26 SW 8.50 W No 0.000 No Precipitation 06/07/2019 11:50 AM 06/07/2019 11:55 AM 0.000 0.000 0.000 0.000 0.000 Not Reported Not Reported
06/24/2019 05:53 PM 72.68 52.88 32.54 76.28 43.70 22.0 Not Reported 1.57 N 3.80 NW 8.72 W No 0.000 No Precipitation 06/07/2019 11:50 AM 06/07/2019 11:55 AM 0.000 0.000 0.000 0.000 0.000 Not Reported Not Reported
06/24/2019 05:58 PM 72.14 53.24 34.52 76.28 43.70 25.0 Not Reported 4.25 W 4.25 SW 8.72 W No 0.000 No Precipitation 06/07/2019 11:50 AM 06/07/2019 11:55 AM 0.000 0.000 0.000 0.000 0.000 Not Reported Not Reported
06/24/2019 06:03 PM 73.04 53.06 32.36 76.28 43.70 22.0 Not Reported 3.80 SW 4.47 SW 5.37 W No 0.000 No Precipitation 06/07/2019 11:50 AM 06/07/2019 11:55 AM 0.000 0.000 0.000 0.000 0.000 Not Reported Not Reported
06/24/2019 06:08 PM 73.04 53.06 32.54 76.28 43.70 22.0 Not Reported 4.03 W 6.49 W 5.37 W No 0.000 No Precipitation 06/07/2019 11:50 AM 06/07/2019 11:55 AM 0.000 0.000 0.000 0.000 0.000 Not Reported Not Reported
06/24/2019 06:13 PM 71.78 52.88 33.44 76.28 43.70 24.0 Not Reported 4.92 W 4.47 NW 6.49 W No 0.000 No Precipitation 06/07/2019 11:50 AM 06/07/2019 11:55 AM 0.000 0.000 0.000 0.000 0.000 Not Reported Not Reported
06/24/2019 06:18 PM 72.14 53.06 33.98 76.28 43.70 24.0 Not Reported 3.13 W 3.36 W 6.49 W No 0.000 No Precipitation 06/07/2019 11:50 AM 06/07/2019 11:55 AM 0.000 0.000 0.000 0.000 0.000 Not Reported Not Reported
06/24/2019 06:23 PM 73.58 53.96 34.88 76.28 43.70 24.0 Not Reported 3.80 W 1.12 W 6.93 SW No 0.000 No Precipitation 06/07/2019 11:50 AM 06/07/2019 11:55 AM 0.000 0.000 0.000 0.000 0.000 Not Reported Not Reported
06/24/2019 06:28 PM 72.14 52.88 33.26 76.28 43.70 23.0 Not Reported 6.93 W 6.93 W 6.93 SW No 0.000 No Precipitation 06/07/2019 11:50 AM 06/07/2019 11:55 AM 0.000 0.000 0.000 0.000 0.000 Not Reported Not Reported
06/24/2019 06:33 PM 71.78 52.88 33.62 76.28 43.70 24.0 Not Reported 5.37 W 2.91 W 7.38 W No 0.000 No Precipitation 06/07/2019 11:50 AM 06/07/2019 11:55 AM 0.000 0.000 0.000 0.000 0.000 Not Reported Not Reported
06/24/2019 06:38 PM 71.96 53.06 33.98 76.28 43.70 24.0 Not Reported 3.36 SW 2.46 W 7.38 W No 0.000 No Precipitation 06/07/2019 11:50 AM 06/07/2019 11:55 AM 0.000 0.000 0.000 0.000 0.000 Not Reported Not Reported
06/24/2019 06:43 PM 71.06 52.70 34.34 76.28 43.70 25.0 Not Reported 4.25 SW 5.37 SW 6.49 W No 0.000 No Precipitation 06/07/2019 11:50 AM 06/07/2019 11:55 AM 0.000 0.000 0.000 0.000 0.000 Not Reported Not Reported
06/24/2019 06:48 PM 70.70 52.70 34.88 76.28 43.70 26.0 Not Reported 2.91 SW 2.24 SW 6.49 W No 0.000 No Precipitation 06/07/2019 11:50 AM 06/07/2019 11:55 AM 0.000 0.000 0.000 0.000 0.000 Not Reported Not Reported
06/24/2019 06:53 PM 70.88 52.70 34.52 76.28 43.70 26.0 Not Reported 3.58 W 1.79 W 6.26 SW No 0.000 No Precipitation 06/07/2019 11:50 AM 06/07/2019 11:55 AM 0.000 0.000 0.000 0.000 0.000 Not Reported Not Reported
06/24/2019 06:58 PM 70.70 52.52 33.80 76.28 43.70 25.0 Not Reported 3.36 W 2.68 SW 6.26 SW No 0.000 No Precipitation 06/07/2019 11:50 AM 06/07/2019 11:55 AM 0.000 0.000 0.000 0.000 0.000 Not Reported Not Reported
06/24/2019 07:03 PM 70.34 52.70 35.06 76.28 43.70 27.0 Not Reported 3.36 W 1.79 W 4.70 SW No 0.000 No Precipitation 06/07/2019 11:50 AM 06/07/2019 11:55 AM 0.000 0.000 0.000 0.000 0.000 Not Reported Not Reported
06/24/2019 07:08 PM 70.16 52.52 34.88 76.28 43.70 27.0 Not Reported 2.01 W 2.68 W 4.70 SW No 0.000 No Precipitation 06/07/2019 11:50 AM 06/07/2019 11:55 AM 0.000 0.000 0.000 0.000 0.000 Not Reported Not Reported
06/24/2019 07:13 PM 69.62 51.98 33.80 76.28 43.70 26.0 Not Reported 3.36 W 2.46 NE 4.03 N No 0.000 No Precipitation 06/07/2019 11:50 AM 06/07/2019 11:55 AM 0.000 0.000 0.000 0.000 0.000 Not Reported Not Reported
06/24/2019 07:18 PM 69.98 52.52 35.06 75.56 43.70 27.0 Not Reported 1.79 SW 0.67 S 4.03 N No 0.000 No Precipitation 06/07/2019 11:50 AM 06/07/2019 11:55 AM 0.000 0.000 0.000 0.000 0.000 Not Reported Not Reported
06/24/2019 07:23 PM 69.80 52.88 36.68 75.56 43.70 29.0 Not Reported 2.24 SW 2.46 SW 6.04 SW No 0.000 No Precipitation 06/07/2019 11:50 AM 06/07/2019 11:55 AM 0.000 0.000 0.000 0.000 0.000 Not Reported Not Reported
06/24/2019 07:28 PM 69.62 52.52 35.78 75.56 43.70 28.0 Not Reported 2.68 W 2.46 SW 6.04 SW No 0.000 No Precipitation 06/07/2019 11:50 AM 06/07/2019 11:55 AM 0.000 0.000 0.000 0.000 0.000 Not Reported Not Reported
06/24/2019 07:33 PM 69.08 52.52 36.14 75.56 43.70 29.0 Not Reported 2.24 W 1.79 W 5.14 W No 0.000 No Precipitation 06/07/2019 11:50 AM 06/07/2019 11:55 AM 0.000 0.000 0.000 0.000 0.000 Not Reported Not Reported
06/24/2019 07:38 PM 68.72 51.98 35.24 75.56 43.70 29.0 Not Reported 4.03 W 4.70 SW 5.14 W No 0.000 No Precipitation 06/07/2019 11:50 AM 06/07/2019 11:55 AM 0.000 0.000 0.000 0.000 0.000 Not Reported Not Reported
06/24/2019 07:43 PM 68.36 51.44 33.62 75.20 43.70 27.0 Not Reported 4.70 W 5.59 W 5.14 NW No 0.000 No Precipitation 06/07/2019 11:50 AM 06/07/2019 11:55 AM 0.000 0.000 0.000 0.000 0.000 Not Reported Not Reported
06/24/2019 07:48 PM 68.36 51.44 34.16 75.20 43.70 28.0 Not Reported 3.13 SW 3.80 W 5.14 NW No 0.000 No Precipitation 06/07/2019 11:50 AM 06/07/2019 11:55 AM 0.000 0.000 0.000 0.000 0.000 Not Reported Not Reported
06/24/2019 07:53 PM 68.36 51.62 34.88 75.20 43.70 28.0 Not Reported 2.68 W 0.45 NW 5.82 W No 0.000 No Precipitation 06/07/2019 11:50 AM 06/07/2019 11:55 AM 0.000 0.000 0.000 0.000 0.000 Not Reported Not Reported
06/24/2019 07:58 PM 68.00 51.62 34.88 75.20 43.70 29.0 Not Reported 2.91 SW 2.46 SW 5.82 W No 0.000 No Precipitation 06/07/2019 11:50 AM 06/07/2019 11:55 AM 0.000 0.000 0.000 0.000 0.000 Not Reported Not Reported
06/24/2019 08:03 PM 67.82 51.26 34.16 75.20 43.70 28.0 Not Reported 2.91 SW 4.03 W 6.26 W No 0.000 No Precipitation 06/07/2019 11:50 AM 06/07/2019 11:55 AM 0.000 0.000 0.000 0.000 0.000 Not Reported Not Reported
06/24/2019 08:08 PM 67.64 51.26 34.16 75.20 43.70 28.0 Not Reported 3.58 W 4.70 W 6.26 W No 0.000 No Precipitation 06/07/2019 11:50 AM 06/07/2019 11:55 AM 0.000 0.000 0.000 0.000 0.000 Not Reported Not Reported
06/24/2019 08:13 PM 67.64 51.26 34.34 75.20 43.70 29.0 Not Reported 4.47 W 2.24 W 5.59 NW No 0.000 No Precipitation 06/07/2019 11:50 AM 06/07/2019 11:55 AM 0.000 0.000 0.000 0.000 0.000 Not Reported Not Reported
06/24/2019 08:18 PM 67.28 51.08 34.16 75.20 43.70 29.0 Not Reported 4.25 W 6.04 W 5.59 NW No 0.000 No Precipitation 06/07/2019 11:50 AM 06/07/2019 11:55 AM 0.000 0.000 0.000 0.000 0.000 Not Reported Not Reported
06/24/2019 08:23 PM 67.10 51.08 34.34 75.20 43.70 29.0 Not Reported 2.24 SW 3.13 W 6.93 W No 0.000 No Precipitation 06/07/2019 11:50 AM 06/07/2019 11:55 AM 0.000 0.000 0.000 0.000 0.000 Not Reported Not Reported
06/24/2019 08:28 PM 67.28 50.72 33.08 75.20 43.70 27.0 Not Reported 1.57 NE 3.36 NE 6.93 W No 0.000 No Precipitation 06/07/2019 11:50 AM 06/07/2019 11:55 AM 0.000 0.000 0.000 0.000 0.000 Not Reported Not Reported
06/24/2019 08:33 PM 67.10 50.90 33.98 75.20 43.70 29.0 Not Reported 0.67 W 1.79 W 4.47 NW No 0.000 No Precipitation 06/07/2019 11:50 AM 06/07/2019 11:55 AM 0.000 0.000 0.000 0.000 0.000 Not Reported Not Reported
06/24/2019 08:38 PM 66.74 50.36 33.08 75.20 43.70 28.0 Not Reported 4.92 W 4.25 SW 4.47 NW No 0.000 No Precipitation 06/07/2019 11:50 AM 06/07/2019 11:55 AM 0.000 0.000 0.000 0.000 0.000 Not Reported Not Reported
06/24/2019 08:43 PM 66.56 50.18 32.54 75.20 43.70 27.0 Not Reported 4.03 W 4.70 NW 6.04 SW No 0.000 No Precipitation 06/07/2019 11:50 AM 06/07/2019 11:55 AM 0.000 0.000 0.000 0.000 0.000 Not Reported Not Reported
06/24/2019 08:48 PM 66.56 50.36 32.72 75.20 43.70 28.0 Not Reported 3.36 NW 2.68 NW 6.04 SW No 0.000 No Precipitation 06/07/2019 11:50 AM 06/07/2019 11:55 AM 0.000 0.000 0.000 0.000 0.000 Not Reported Not Reported
06/24/2019 08:53 PM 66.38 50.18 33.08 75.20 43.70 28.0 Not Reported 2.68 SW 4.47 NW 6.49 W No 0.000 No Precipitation 06/07/2019 11:50 AM 06/07/2019 11:55 AM 0.000 0.000 0.000 0.000 0.000 Not Reported Not Reported
06/24/2019 08:58 PM 66.20 50.36 33.62 75.20 43.70 29.0 Not Reported 2.01 S 2.24 E 6.49 W No 0.000 No Precipitation 06/07/2019 11:50 AM 06/07/2019 11:55 AM 0.000 0.000 0.000 0.000 0.000 Not Reported Not Reported
06/24/2019 09:03 PM 66.02 50.18 33.26 75.20 43.70 29.0 Not Reported 4.70 W 4.25 SW 7.38 SW No 0.000 No Precipitation 06/07/2019 11:50 AM 06/07/2019 11:55 AM 0.000 0.000 0.000 0.000 0.000 Not Reported Not Reported
06/24/2019 09:08 PM 65.84 50.18 33.62 75.20 43.70 29.0 Not Reported 4.70 W 4.03 SW 7.38 SW No 0.000 No Precipitation 06/07/2019 11:50 AM 06/07/2019 11:55 AM 0.000 0.000 0.000 0.000 0.000 Not Reported Not Reported
06/24/2019 09:13 PM 65.48 50.18 33.62 75.20 43.70 30.0 Not Reported 3.13 SW 4.25 W 7.83 SW No 0.000 No Precipitation 06/07/2019 11:50 AM 06/07/2019 11:55 AM 0.000 0.000 0.000 0.000 0.000 Not Reported Not Reported
06/24/2019 09:18 PM 65.48 50.18 33.98 75.20 43.70 30.0 Not Reported 2.24 SW 2.68 W 7.83 SW No 0.000 No Precipitation 06/07/2019 11:50 AM 06/07/2019 11:55 AM 0.000 0.000 0.000 0.000 0.000 Not Reported Not Reported
06/24/2019 09:23 PM 65.30 50.18 34.16 75.20 43.70 31.0 Not Reported 6.04 W 1.34 SW 4.47 W No 0.000 No Precipitation 06/07/2019 11:50 AM 06/07/2019 11:55 AM 0.000 0.000 0.000 0.000 0.000 Not Reported Not Reported
06/24/2019 09:28 PM 65.12 50.00 34.34 75.20 43.70 31.0 Not Reported 1.12 NW 0.89 SW 4.47 W No 0.000 No Precipitation 06/07/2019 11:50 AM 06/07/2019 11:55 AM 0.000 0.000 0.000 0.000 0.000 Not Reported Not Reported
06/24/2019 09:33 PM 64.94 50.00 33.80 75.20 43.70 31.0 Not Reported 4.25 W 6.93 W 7.16 W No 0.000 No Precipitation 06/07/2019 11:50 AM 06/07/2019 11:55 AM 0.000 0.000 0.000 0.000 0.000 Not Reported Not Reported
06/24/2019 09:38 PM 64.94 50.00 34.34 75.20 43.70 31.0 Not Reported 1.79 NE 1.57 SW 7.16 W No 0.000 No Precipitation 06/07/2019 11:50 AM 06/07/2019 11:55 AM 0.000 0.000 0.000 0.000 0.000 Not Reported Not Reported
06/24/2019 09:43 PM 64.76 49.82 33.80 75.20 43.70 31.0 Not Reported 2.24 SW 3.13 W 6.93 W No 0.000 No Precipitation 06/07/2019 11:50 AM 06/07/2019 11:55 AM 0.000 0.000 0.000 0.000 0.000 Not Reported Not Reported
06/24/2019 09:48 PM 64.58 49.46 33.08 75.20 43.70 30.0 Not Reported 0.67 E 0.00 SW 6.93 W No 0.000 No Precipitation 06/07/2019 11:50 AM 06/07/2019 11:55 AM 0.000 0.000 0.000 0.000 0.000 Not Reported Not Reported
06/24/2019 09:53 PM 64.58 49.46 33.26 75.20 43.70 31.0 Not Reported 2.01 W 3.13 S 4.03 W No 0.000 No Precipitation 06/07/2019 11:50 AM 06/07/2019 11:55 AM 0.000 0.000 0.000 0.000 0.000 Not Reported Not Reported
06/24/2019 09:58 PM 64.22 49.46 33.62 75.20 43.70 31.0 Not Reported 1.34 SW 2.01 W 4.03 W No 0.000 No Precipitation 06/07/2019 11:50 AM 06/07/2019 11:55 AM 0.000 0.000 0.000 0.000 0.000 Not Reported Not Reported
06/24/2019 10:03 PM 63.86 49.10 32.90 75.20 43.70 31.0 Not Reported 2.24 SW 4.70 SW 4.25 NW No 0.000 No Precipitation 06/07/2019 11:50 AM 06/07/2019 11:55 AM 0.000 0.000 0.000 0.000 0.000 Not Reported Not Reported
06/24/2019 10:08 PM 63.86 49.28 33.26 75.20 43.70 31.0 Not Reported 2.01 SW 1.79 S 4.25 NW No 0.000 No Precipitation 06/07/2019 11:50 AM 06/07/2019 11:55 AM 0.000 0.000 0.000 0.000 0.000 Not Reported Not Reported
06/24/2019 10:13 PM 63.50 49.28 33.80 75.20 43.70 32.0 Not Reported 1.79 SW 3.13 W 5.37 W No 0.000 No Precipitation 06/07/2019 11:50 AM 06/07/2019 11:55 AM 0.000 0.000 0.000 0.000 0.000 Not Reported Not Reported
06/24/2019 10:18 PM 63.14 49.10 33.80 75.20 43.70 33.0 Not Reported 1.34 SW 0.89 SW 5.37 W No 0.000 No Precipitation 06/07/2019 11:50 AM 06/07/2019 11:55 AM 0.000 0.000 0.000 0.000 0.000 Not Reported Not Reported
06/24/2019 10:23 PM 62.60 48.74 33.44 75.20 43.70 33.0 Not Reported 2.01 W 1.12 W 3.13 W No 0.000 No Precipitation 06/07/2019 11:50 AM 06/07/2019 11:55 AM 0.000 0.000 0.000 0.000 0.000 Not Reported Not Reported
06/24/2019 10:28 PM 62.42 49.10 34.88 75.20 43.70 35.0 Not Reported 2.01 SW 2.24 W 3.13 W No 0.000 No Precipitation 06/07/2019 11:50 AM 06/07/2019 11:55 AM 0.000 0.000 0.000 0.000 0.000 Not Reported Not Reported
06/24/2019 10:33 PM 61.70 48.92 35.42 75.20 43.70 37.0 Not Reported 2.24 SW 1.79 SW 2.91 W No 0.000 No Precipitation 06/07/2019 11:50 AM 06/07/2019 11:55 AM 0.000 0.000 0.000 0.000 0.000 Not Reported Not Reported
06/24/2019 10:38 PM 61.34 49.10 36.50 75.20 43.70 39.0 Not Reported 0.00 W 0.00 W 2.91 W No 0.000 No Precipitation 06/07/2019 11:50 AM 06/07/2019 11:55 AM 0.000 0.000 0.000 0.000 0.000 Not Reported Not Reported
06/24/2019 10:43 PM 60.62 48.74 36.50 75.20 43.70 40.0 Not Reported 0.00 W 1.12 SW 2.91 W No 0.000 No Precipitation 06/07/2019 11:50 AM 06/07/2019 11:55 AM 0.000 0.000 0.000 0.000 0.000 Not Reported Not Reported
06/24/2019 10:48 PM 60.26 48.74 36.68 75.20 43.70 41.0 Not Reported 2.46 W 3.13 W 2.91 W No 0.000 No Precipitation 06/07/2019 11:50 AM 06/07/2019 11:55 AM 0.000 0.000 0.000 0.000 0.000 Not Reported Not Reported
06/24/2019 10:53 PM 60.26 48.56 36.14 75.20 43.70 40.0 Not Reported 1.79 SW 0.22 W 3.13 W No 0.000 No Precipitation 06/07/2019 11:50 AM 06/07/2019 11:55 AM 0.000 0.000 0.000 0.000 0.000 Not Reported Not Reported
06/24/2019 10:58 PM 60.26 48.74 37.04 75.20 43.70 41.0 Not Reported 2.46 W 2.01 W 3.13 W No 0.000 No Precipitation 06/07/2019 11:50 AM 06/07/2019 11:55 AM 0.000 0.000 0.000 0.000 0.000 Not Reported Not Reported
06/24/2019 11:03 PM 59.36 48.38 36.86 75.20 43.70 42.0 Not Reported 3.13 W 2.46 SW 3.36 W No 0.000 No Precipitation 06/07/2019 11:50 AM 06/07/2019 11:55 AM 0.000 0.000 0.000 0.000 0.000 Not Reported Not Reported
06/24/2019 11:08 PM 58.82 48.20 37.22 75.20 43.70 44.0 Not Reported 2.01 W 2.68 W 3.36 W No 0.000 No Precipitation 06/07/2019 11:50 AM 06/07/2019 11:55 AM 0.000 0.000 0.000 0.000 0.000 Not Reported Not Reported
06/24/2019 11:13 PM 59.18 48.38 37.22 75.20 43.70 43.0 Not Reported 2.24 W 2.68 W 4.25 SW No 0.000 No Precipitation 06/07/2019 11:50 AM 06/07/2019 11:55 AM 0.000 0.000 0.000 0.000 0.000 Not Reported Not Reported
06/24/2019 11:18 PM 58.64 48.20 37.58 75.20 43.70 45.0 Not Reported 2.91 W 2.91 W 4.25 SW No 0.000 No Precipitation 06/07/2019 11:50 AM 06/07/2019 11:55 AM 0.000 0.000 0.000 0.000 0.000 Not Reported Not Reported
06/24/2019 11:23 PM 58.28 47.30 35.24 75.20 43.70 41.0 Not Reported 3.80 SW 4.47 W 3.36 W No 0.000 No Precipitation 06/07/2019 11:50 AM 06/07/2019 11:55 AM 0.000 0.000 0.000 0.000 0.000 Not Reported Not Reported
06/24/2019 11:28 PM 58.10 47.66 36.86 75.20 43.70 44.0 Not Reported 3.58 W 4.25 SW 3.36 W No 0.000 No Precipitation 06/07/2019 11:50 AM 06/07/2019 11:55 AM 0.000 0.000 0.000 0.000 0.000 Not Reported Not Reported
06/24/2019 11:33 PM 58.82 47.30 34.34 75.20 43.70 39.0 Not Reported 3.58 W 4.92 SW 6.26 W No 0.000 No Precipitation 06/07/2019 11:50 AM 06/07/2019 11:55 AM 0.000 0.000 0.000 0.000 0.000 Not Reported Not Reported
06/24/2019 11:38 PM 60.08 47.30 32.72 75.20 43.70 35.0 Not Reported 5.59 W 6.71 SW 6.26 W No 0.000 No Precipitation 06/07/2019 11:50 AM 06/07/2019 11:55 AM 0.000 0.000 0.000 0.000 0.000 Not Reported Not Reported
06/24/2019 11:43 PM 60.62 47.48 32.54 75.20 43.70 35.0 Not Reported 7.16 W 4.03 W 7.38 W No 0.000 No Precipitation 06/07/2019 11:50 AM 06/07/2019 11:55 AM 0.000 0.000 0.000 0.000 0.000 Not Reported Not Reported
06/24/2019 11:48 PM 59.90 47.30 32.72 75.20 43.70 35.0 Not Reported 6.04 SW 7.38 SW 7.38 W No 0.000 No Precipitation 06/07/2019 11:50 AM 06/07/2019 11:55 AM 0.000 0.000 0.000 0.000 0.000 Not Reported Not Reported
06/24/2019 11:53 PM 60.62 47.30 31.82 75.20 43.70 33.0 Not Reported 6.93 SW 8.72 W 8.72 W No 0.000 No Precipitation 06/07/2019 11:50 AM 06/07/2019 11:55 AM 0.000 0.000 0.000 0.000 0.000 Not Reported Not Reported
06/24/2019 11:58 PM 60.62 47.12 31.82 75.20 43.70 33.0 Not Reported 5.14 W 6.71 W 8.72 W No 0.000 No Precipitation 06/07/2019 11:50 AM 06/07/2019 11:55 AM 0.000 0.000 0.000 0.000 0.000 Not Reported Not Reported